createdAt,value
2023-04-27T00:04:20.992Z,98628.00
2023-04-27T00:09:23.285Z,98637.41
2023-04-27T00:14:28.701Z,98644.38
2023-04-27T00:19:30.709Z,98647.25
2023-04-27T00:24:32.637Z,98643.19
2023-04-27T00:29:34.610Z,98648.53
2023-04-27T00:34:36.863Z,98656.09
2023-04-27T00:39:38.875Z,98655.50
2023-04-27T00:44:41.167Z,98656.53
2023-04-27T00:49:43.054Z,98664.72
2023-04-27T00:54:45.410Z,98665.94
2023-04-27T00:59:47.352Z,98668.00
2023-04-27T01:04:53.629Z,98654.28
2023-04-27T01:09:55.527Z,98667.78
2023-04-27T01:14:57.450Z,98665.59
2023-04-27T01:19:59.770Z,98654.13
2023-04-27T01:25:01.637Z,98659.00
2023-04-27T01:30:06.718Z,98650.00
2023-04-27T01:35:08.938Z,98653.69
2023-04-27T01:40:10.977Z,98652.28
2023-04-27T01:45:12.957Z,98657.22
2023-04-27T01:50:14.836Z,98663.19
2023-04-27T01:55:16.813Z,98670.34
2023-04-27T02:00:19.047Z,98673.00
2023-04-27T02:05:24.411Z,98667.28
2023-04-27T02:10:27.765Z,98669.53
2023-04-27T02:15:33.003Z,98677.72
2023-04-27T02:20:36.112Z,98677.91
2023-04-27T02:25:43.044Z,98685.69
2023-04-27T02:30:45.203Z,98689.78
2023-04-27T02:35:48.141Z,98694.88
2023-04-27T02:40:53.578Z,98695.47
2023-04-27T02:45:55.718Z,98696.88
2023-04-27T02:50:57.720Z,98706.47
2023-04-27T02:55:59.705Z,98711.53
2023-04-27T03:01:02.741Z,98712.06
2023-04-27T03:06:04.760Z,98728.41
2023-04-27T03:11:06.832Z,98727.50
2023-04-27T03:16:13.896Z,98734.41
2023-04-27T03:21:17.113Z,98734.72
2023-04-27T03:26:19.029Z,98734.66
2023-04-27T03:31:21.199Z,98748.06
2023-04-27T03:36:23.158Z,98745.47
2023-04-27T03:41:25.096Z,98746.53
2023-04-27T03:46:27.121Z,98750.50
2023-04-27T03:51:30.805Z,98753.50
2023-04-27T03:56:33.358Z,98764.28
2023-04-27T04:01:36.519Z,98765.78
2023-04-27T04:06:38.431Z,98765.41
2023-04-27T04:11:40.411Z,98771.25
2023-04-27T04:16:45.222Z,98779.44
2023-04-27T04:21:47.915Z,98777.63
2023-04-27T04:26:49.807Z,98782.16
2023-04-27T04:31:52.141Z,98775.97
2023-04-27T04:36:54.459Z,98790.09
2023-04-27T04:41:56.878Z,98783.31
2023-04-27T04:47:02.137Z,98784.06
2023-04-27T04:52:06.738Z,98787.81
2023-04-27T04:57:08.742Z,98786.22
2023-04-27T05:02:10.869Z,98789.94
2023-04-27T05:07:15.073Z,98791.91
2023-04-27T05:12:17.710Z,98789.47
2023-04-27T05:17:19.676Z,98793.47
2023-04-27T05:22:21.548Z,98799.56
2023-04-27T05:27:23.423Z,98801.91
2023-04-27T05:32:25.895Z,98811.97
2023-04-27T05:37:27.853Z,98808.41
2023-04-27T05:42:29.703Z,98808.59
2023-04-27T05:47:31.571Z,98802.22
2023-04-27T05:52:34.168Z,98802.28
2023-04-27T05:57:38.212Z,98803.47
2023-04-27T06:02:40.197Z,98799.31
2023-04-27T06:07:43.866Z,98806.16
2023-04-27T06:12:46.450Z,98802.31
2023-04-27T06:17:48.520Z,98804.63
2023-04-27T06:22:50.385Z,98802.16
2023-04-27T06:27:52.240Z,98794.91
2023-04-27T06:32:54.248Z,98818.44
2023-04-27T06:37:58.949Z,98822.44
2023-04-27T06:43:00.996Z,98817.09
2023-04-27T06:48:02.984Z,98820.69
2023-04-27T06:53:05.112Z,98830.47
2023-04-27T06:58:07.380Z,98831.63
2023-04-27T07:03:09.473Z,98832.91
2023-04-27T07:08:11.523Z,98835.88
2023-04-27T07:16:33.286Z,98826.38
2023-04-27T07:21:35.447Z,98821.19
2023-04-27T07:26:37.699Z,98823.28
2023-04-27T07:31:39.828Z,98824.59
2023-04-27T07:36:41.832Z,98820.75
2023-04-27T07:41:43.911Z,98816.97
2023-04-27T07:46:49.019Z,98825.72
2023-04-27T07:51:51.264Z,98833.47
2023-04-27T07:56:54.099Z,98826.00
2023-04-27T08:02:07.131Z,98824.53
2023-04-27T08:07:19.513Z,98841.28
2023-04-27T08:12:21.876Z,98828.06
2023-04-27T08:17:24.052Z,98835.31
2023-04-27T08:22:26.088Z,98828.72
2023-04-27T08:27:28.279Z,98811.84
2023-04-27T08:32:30.344Z,98819.16
2023-04-27T08:37:33.439Z,98819.94
2023-04-27T08:42:36.618Z,98816.38
2023-04-27T08:47:43.563Z,98822.06
2023-04-27T08:52:49.536Z,98818.53
2023-04-27T08:57:58.692Z,98825.22
2023-04-27T09:03:04.267Z,98819.78
2023-04-27T09:08:08.182Z,98811.16
2023-04-27T09:13:10.209Z,98814.81
2023-04-27T09:18:21.335Z,98808.25
2023-04-27T09:23:31.821Z,98802.94
2023-04-27T09:28:35.229Z,98805.94
2023-04-27T09:33:37.270Z,98800.66
2023-04-27T09:38:39.604Z,98788.28
2023-04-27T09:43:45.736Z,98794.75
2023-04-27T09:48:49.791Z,98795.72
2023-04-27T09:53:59.322Z,98794.78
2023-04-27T09:59:24.385Z,98792.66
2023-04-27T10:04:57.726Z,98792.91
2023-04-27T10:10:04.959Z,98789.81
2023-04-27T10:15:14.809Z,98805.28
2023-04-27T10:20:17.965Z,98788.56
2023-04-27T10:25:26.434Z,98786.84
2023-04-27T10:30:34.798Z,98785.25
2023-04-27T10:35:37.646Z,98781.88
2023-04-27T10:40:39.955Z,98785.56
2023-04-27T10:45:45.505Z,98794.69
2023-04-27T10:50:47.910Z,98770.69
2023-04-27T10:55:56.944Z,98779.06
2023-04-27T11:00:58.950Z,98779.69
2023-04-27T11:06:05.365Z,98790.63
2023-04-27T11:11:09.788Z,98798.03
2023-04-27T11:16:11.807Z,98801.31
2023-04-27T11:21:20.576Z,98806.88
2023-04-27T11:26:26.580Z,98794.00
2023-04-27T11:31:43.625Z,98810.28
2023-04-27T11:37:03.768Z,98815.41
2023-04-27T11:42:24.925Z,98860.72
2023-04-27T11:47:29.333Z,98838.50
2023-04-27T11:52:36.280Z,98837.63
2023-04-27T11:57:39.056Z,98831.97
2023-04-27T12:02:42.988Z,98844.59
2023-04-27T12:07:45.582Z,98828.06
2023-04-27T12:12:47.554Z,98817.84
2023-04-27T12:17:49.573Z,98809.59
2023-04-27T12:22:51.890Z,98823.16
2023-04-27T12:27:54.055Z,98813.28
2023-04-27T12:32:56.287Z,98799.38
2023-04-27T12:37:58.719Z,98792.50
2023-04-27T12:43:01.572Z,98817.69
2023-04-27T12:48:04.412Z,98814.56
2023-04-27T12:53:06.616Z,98801.91
2023-04-27T12:58:08.600Z,98792.25
2023-04-27T13:03:10.924Z,98785.25
2023-04-27T13:08:13.002Z,98795.81
2023-04-27T13:13:15.004Z,98801.25
2023-04-27T13:18:16.985Z,98790.72
2023-04-27T13:23:19.154Z,98785.47
2023-04-27T13:28:21.117Z,98795.25
2023-04-27T13:33:23.830Z,98788.38
2023-04-27T13:38:26.212Z,98782.22
2023-04-27T13:43:28.235Z,98803.09
2023-04-27T13:48:30.995Z,98793.06
2023-04-27T13:53:33.071Z,98795.63
2023-04-27T13:58:35.117Z,98808.00
2023-04-27T14:03:37.254Z,98790.72
2023-04-27T14:08:39.320Z,98781.19
2023-04-27T14:13:41.299Z,98796.44
2023-04-27T14:18:43.292Z,98785.09
2023-04-27T14:23:45.324Z,98770.75
2023-04-27T14:28:47.350Z,98791.19
2023-04-27T14:33:49.378Z,98790.72
2023-04-27T14:38:51.423Z,98800.78
2023-04-27T14:43:54.342Z,98797.88
2023-04-27T14:48:56.612Z,98787.91
2023-04-27T14:53:58.699Z,98791.69
2023-04-27T14:59:00.850Z,98799.88
2023-04-27T15:04:03.144Z,98801.84
2023-04-27T15:09:06.335Z,98807.25
2023-04-27T15:14:08.826Z,98797.28
2023-04-27T15:19:11.070Z,98803.50
2023-04-27T15:24:13.056Z,98798.66
2023-04-27T15:29:15.413Z,98804.56
2023-04-27T15:34:17.732Z,98805.34
2023-04-27T15:39:19.770Z,98806.13
2023-04-27T15:44:21.762Z,98813.41
2023-04-27T15:49:23.789Z,98811.75
2023-04-27T15:54:26.263Z,98791.44
2023-04-27T15:59:28.423Z,98814.63
2023-04-27T16:04:30.527Z,98814.06
2023-04-27T16:09:32.603Z,98825.34
2023-04-27T16:14:34.626Z,98820.16
2023-04-27T16:19:36.672Z,98821.69
2023-04-27T16:24:38.682Z,98821.63
2023-04-27T16:29:40.899Z,98818.06
2023-04-27T16:34:43.118Z,98811.19
2023-04-27T16:39:45.447Z,98827.84
2023-04-27T16:44:47.841Z,98840.69
2023-04-27T16:49:49.925Z,98844.88
2023-04-27T16:54:52.043Z,98853.16
2023-04-27T16:59:54.339Z,98848.75
2023-04-27T17:04:57.926Z,98837.22
2023-04-27T17:10:00.138Z,98863.09
2023-04-27T17:15:02.492Z,98865.91
2023-04-27T17:20:14.836Z,98861.56
2023-04-27T17:25:17.929Z,98869.94
2023-04-27T17:30:20.012Z,98846.69
2023-04-27T17:35:22.230Z,98861.56
2023-04-27T17:40:24.283Z,98856.38
2023-04-27T17:45:28.777Z,98875.47
2023-04-27T17:50:31.677Z,98855.06
2023-04-27T17:55:33.784Z,98876.00
2023-04-27T18:00:36.004Z,98867.53
2023-04-27T18:05:38.243Z,98874.66
2023-04-27T18:10:40.256Z,98873.38
2023-04-27T18:15:42.370Z,98868.66
2023-04-27T18:20:45.038Z,98865.91
2023-04-27T18:25:47.553Z,98862.88
2023-04-27T18:30:49.771Z,98869.75
2023-04-27T18:35:51.906Z,98875.09
2023-04-27T18:40:54.179Z,98868.91
2023-04-27T18:45:56.405Z,98865.31
2023-04-27T18:50:58.617Z,98867.09
2023-04-27T18:56:00.984Z,98854.66
2023-04-27T19:01:03.093Z,98866.28
2023-04-27T19:06:05.214Z,98862.19
2023-04-27T19:11:07.347Z,98862.63
2023-04-27T19:16:10.476Z,98860.91
2023-04-27T19:21:12.940Z,98851.22
2023-04-27T19:26:15.331Z,98855.13
2023-04-27T19:31:17.955Z,98848.72
2023-04-27T19:36:20.837Z,98852.34
2023-04-27T19:41:23.778Z,98855.28
2023-04-27T19:46:26.795Z,98843.97
2023-04-27T19:51:29.694Z,98845.84
2023-04-27T19:56:31.702Z,98849.72
2023-04-27T20:01:33.620Z,98853.66
2023-04-27T20:06:35.878Z,98834.06
2023-04-27T20:11:38.006Z,98853.66
2023-04-27T20:16:40.188Z,98862.69
2023-04-27T20:21:42.375Z,98867.13
2023-04-27T20:26:44.622Z,98861.88
2023-04-27T20:31:48.672Z,98857.47
2023-04-27T20:36:53.086Z,98859.25
2023-04-27T20:41:55.003Z,98850.28
2023-04-27T20:46:56.896Z,98855.88
2023-04-27T20:51:59.127Z,98846.94
2023-04-27T20:57:02.266Z,98838.09
2023-04-27T21:02:04.432Z,98849.03
2023-04-27T21:07:06.617Z,98848.69
2023-04-27T21:12:09.113Z,98843.50
2023-04-27T21:17:15.173Z,98842.09
2023-04-27T21:22:17.174Z,98840.34
2023-04-27T21:27:19.338Z,98842.09
2023-04-27T21:32:21.370Z,98844.44
2023-04-27T21:37:23.222Z,98843.91
2023-04-27T21:42:25.886Z,98827.56
2023-04-27T21:47:28.232Z,98834.56
2023-04-27T21:52:30.484Z,98827.09
2023-04-27T21:57:35.563Z,98826.97
2023-04-27T22:02:37.779Z,98829.53
2023-04-27T22:07:40.062Z,98828.22
2023-04-27T22:12:42.240Z,98837.31
2023-04-27T22:17:44.430Z,98838.81
2023-04-27T22:22:46.641Z,98832.78
2023-04-27T22:27:48.630Z,98823.78
2023-04-27T22:32:50.554Z,98841.78
2023-04-27T22:37:52.738Z,98839.25
2023-04-27T22:42:55.820Z,98827.34
2023-04-27T22:47:57.984Z,98829.09
2023-04-27T22:53:00.761Z,98836.38
2023-04-27T22:58:02.713Z,98834.63
2023-04-27T23:03:04.808Z,98824.16
2023-04-27T23:08:06.963Z,98824.03
2023-04-27T23:13:10.834Z,98828.50
2023-04-27T23:18:12.918Z,98819.22
2023-04-27T23:23:15.002Z,98822.00
2023-04-27T23:28:17.131Z,98828.22
2023-04-27T23:33:18.983Z,98834.50
2023-04-27T23:38:21.173Z,98841.00
2023-04-27T23:43:23.198Z,98821.06
2023-04-27T23:48:25.333Z,98819.56
2023-04-27T23:53:27.369Z,98815.13
2023-04-27T23:58:29.423Z,98816.81
